createdAt,value
2023-04-25T00:02:03.358Z,10.50
2023-04-25T00:04:51.249Z,10.40
2023-04-25T00:07:38.094Z,10.40
2023-04-25T00:10:24.590Z,10.40
2023-04-25T00:13:12.389Z,10.30
2023-04-25T00:15:59.091Z,10.20
2023-04-25T00:18:47.241Z,10.20
2023-04-25T00:21:36.391Z,10.20
2023-04-25T00:24:23.175Z,10.20
2023-04-25T00:27:09.862Z,10.30
2023-04-25T00:29:56.638Z,10.40
2023-04-25T00:32:43.730Z,10.40
2023-04-25T00:35:30.612Z,10.40
2023-04-25T00:38:18.338Z,10.30
2023-04-25T00:41:04.784Z,10.40
2023-04-25T00:43:53.183Z,10.30
2023-04-25T00:46:41.411Z,10.30
2023-04-25T00:49:28.256Z,10.30
2023-04-25T00:52:15.258Z,10.30
2023-04-25T00:55:03.272Z,10.30
2023-04-25T00:57:49.957Z,10.40
2023-04-25T01:00:36.937Z,10.40
2023-04-25T01:03:24.834Z,10.50
2023-04-25T01:06:13.043Z,10.40
2023-04-25T01:09:00.939Z,10.40
2023-04-25T01:11:49.351Z,10.40
2023-04-25T01:14:36.362Z,10.50
2023-04-25T01:17:23.247Z,10.50
2023-04-25T01:20:11.524Z,10.40
2023-04-25T01:22:59.639Z,10.50
2023-04-25T01:25:47.016Z,10.50
2023-04-25T01:28:35.607Z,10.60
2023-04-25T01:31:22.612Z,10.50
2023-04-25T01:34:09.438Z,10.50
2023-04-25T01:36:56.417Z,10.50
2023-04-25T01:39:44.649Z,10.50
2023-04-25T01:42:31.067Z,10.50
2023-04-25T01:45:18.510Z,10.50
2023-04-25T01:48:05.975Z,10.50
2023-04-25T01:50:53.076Z,10.40
2023-04-25T01:53:39.954Z,10.40
2023-04-25T01:56:31.754Z,10.40
2023-04-25T01:59:18.567Z,10.50
2023-04-25T02:02:25.940Z,10.50
2023-04-25T02:05:13.191Z,10.50
2023-04-25T02:08:02.779Z,10.40
2023-04-25T02:10:49.771Z,10.40
2023-04-25T02:13:40.436Z,10.40
2023-04-25T02:16:52.971Z,10.40
2023-04-25T02:19:40.304Z,10.40
2023-04-25T02:22:31.089Z,10.40
2023-04-25T02:25:17.911Z,10.30
2023-04-25T02:28:04.890Z,10.20
2023-04-25T02:30:53.364Z,10.20
2023-04-25T02:33:40.164Z,10.20
2023-04-25T02:36:27.267Z,10.30
2023-04-25T02:39:13.898Z,10.20
2023-04-25T02:42:01.972Z,10.20
2023-04-25T02:44:50.441Z,10.10
2023-04-25T02:47:38.672Z,10.10
2023-04-25T02:50:25.498Z,10.10
2023-04-25T02:53:12.075Z,10.20
2023-04-25T02:56:05.480Z,10.30
2023-04-25T02:58:52.256Z,10.20
2023-04-25T03:01:39.268Z,10.10
2023-04-25T03:04:27.583Z,10.10
2023-04-25T03:07:14.459Z,10.20
2023-04-25T03:10:01.345Z,10.20
2023-04-25T03:12:50.467Z,10.20
2023-04-25T03:15:37.516Z,10.10
2023-04-25T03:18:24.356Z,10.00
2023-04-25T03:21:12.188Z,10.00
2023-04-25T03:23:58.670Z,10.00
2023-04-25T03:26:45.285Z,9.90
2023-04-25T03:29:32.163Z,10.00
2023-04-25T03:32:21.289Z,10.00
2023-04-25T03:35:08.497Z,10.00
2023-04-25T03:37:56.908Z,10.00
2023-04-25T03:40:48.795Z,10.00
2023-04-25T03:43:41.854Z,10.00
2023-04-25T03:46:32.339Z,10.00
2023-04-25T03:49:19.639Z,10.00
2023-04-25T03:52:23.278Z,10.00
2023-04-25T03:55:11.774Z,10.00
2023-04-25T03:58:00.820Z,9.90
2023-04-25T04:00:47.476Z,9.90
2023-04-25T04:03:34.665Z,9.90
2023-04-25T04:06:21.663Z,9.90
2023-04-25T04:09:17.781Z,9.90
2023-04-25T04:12:06.706Z,9.80
2023-04-25T04:14:54.350Z,9.80
2023-04-25T04:17:41.583Z,9.80
2023-04-25T04:20:28.927Z,9.80
2023-04-25T04:23:15.338Z,9.80
2023-04-25T04:26:02.110Z,9.80
2023-04-25T04:29:21.908Z,9.80
2023-04-25T04:32:33.535Z,9.90
2023-04-25T04:35:20.418Z,9.80
2023-04-25T04:38:06.906Z,9.90
2023-04-25T04:40:54.895Z,10.00
2023-04-25T04:43:52.125Z,10.00
2023-04-25T04:46:54.967Z,10.00
2023-04-25T04:49:54.472Z,10.00
2023-04-25T04:53:04.613Z,10.10
2023-04-25T04:56:18.452Z,10.10
2023-04-25T04:59:08.430Z,10.10
2023-04-25T05:02:19.953Z,9.90
2023-04-25T05:05:29.636Z,9.90
2023-04-25T05:08:19.443Z,9.80
2023-04-25T05:11:25.985Z,9.80
2023-04-25T05:14:20.090Z,10.00
2023-04-25T05:17:16.192Z,10.00
2023-04-25T05:20:22.910Z,10.00
2023-04-25T05:23:28.837Z,10.20
2023-04-25T05:26:31.974Z,10.00
2023-04-25T05:29:42.256Z,10.30
2023-04-25T05:32:46.301Z,10.30
2023-04-25T05:35:34.619Z,10.30
2023-04-25T05:38:21.103Z,10.30
2023-04-25T05:41:36.832Z,10.40
2023-04-25T05:44:49.862Z,10.40
2023-04-25T05:47:44.087Z,10.20
2023-04-25T05:50:37.831Z,10.40
2023-04-25T05:53:35.615Z,10.50
2023-04-25T05:56:23.164Z,10.60
2023-04-25T05:59:12.743Z,10.70
2023-04-25T06:01:59.740Z,10.80
2023-04-25T06:04:48.009Z,10.90
2023-04-25T06:07:37.045Z,10.80
2023-04-25T06:10:24.615Z,10.90
2023-04-25T06:13:11.197Z,10.90
2023-04-25T06:15:58.217Z,11.00
2023-04-25T06:18:46.347Z,11.00
2023-04-25T06:21:33.496Z,11.00
2023-04-25T06:24:21.574Z,11.00
2023-04-25T06:27:08.662Z,11.00
2023-04-25T06:29:55.762Z,11.00
2023-04-25T06:32:42.242Z,10.90
2023-04-25T06:35:29.477Z,10.90
2023-04-25T06:38:17.264Z,10.80
2023-04-25T06:41:09.407Z,10.70
2023-04-25T06:43:57.592Z,10.80
2023-04-25T06:46:49.437Z,10.70
2023-04-25T06:49:36.322Z,10.80
2023-04-25T06:52:23.288Z,10.70
2023-04-25T06:55:11.895Z,10.70
2023-04-25T06:58:32.082Z,10.80
2023-04-25T07:01:36.214Z,10.80
2023-04-25T07:04:27.060Z,10.70
2023-04-25T07:07:19.141Z,10.80
2023-04-25T07:10:13.042Z,10.70
2023-04-25T07:12:59.622Z,10.70
2023-04-25T07:15:49.027Z,10.70
2023-04-25T07:18:37.615Z,10.70
2023-04-25T07:21:24.462Z,10.60
2023-04-25T07:24:12.422Z,10.50
2023-04-25T07:27:04.353Z,10.60
2023-04-25T07:29:56.595Z,10.80
2023-04-25T07:32:46.323Z,10.90
2023-04-25T07:35:33.111Z,10.90
2023-04-25T07:38:19.891Z,10.90
2023-04-25T07:41:07.183Z,10.90
2023-04-25T07:43:54.668Z,10.80
2023-04-25T07:46:41.491Z,10.90
2023-04-25T07:49:30.624Z,10.80
2023-04-25T07:52:17.576Z,10.80
2023-04-25T07:55:11.337Z,10.90
2023-04-25T07:58:10.208Z,10.80
2023-04-25T08:01:00.151Z,10.90
2023-04-25T08:03:55.849Z,11.00
2023-04-25T08:06:51.091Z,10.80
2023-04-25T08:09:42.890Z,10.90
2023-04-25T08:12:37.088Z,10.90
2023-04-25T08:15:24.098Z,10.80
2023-04-25T08:18:10.967Z,10.70
2023-04-25T08:20:57.681Z,10.60
2023-04-25T08:23:47.055Z,10.60
2023-04-25T08:26:47.781Z,10.50
2023-04-25T08:29:37.512Z,10.40
2023-04-25T08:32:24.268Z,10.50
2023-04-25T08:35:29.608Z,10.60
2023-04-25T08:38:16.876Z,10.70
2023-04-25T08:41:07.540Z,10.80
2023-04-25T08:43:55.931Z,10.90
2023-04-25T08:46:43.839Z,10.80
2023-04-25T08:49:48.049Z,10.80
2023-04-25T08:52:38.963Z,10.80
2023-04-25T08:55:26.478Z,10.80
2023-04-25T08:58:20.002Z,10.90
2023-04-25T09:01:06.712Z,11.00
2023-04-25T09:04:01.401Z,11.00
2023-04-25T09:06:48.192Z,11.00
2023-04-25T09:09:35.123Z,11.10
2023-04-25T09:12:21.852Z,11.10
2023-04-25T09:15:12.704Z,11.10
2023-04-25T09:18:16.159Z,11.10
2023-04-25T09:21:13.764Z,11.20
2023-04-25T09:24:02.232Z,10.70
2023-04-25T09:26:49.269Z,10.30
2023-04-25T09:29:37.171Z,10.00
2023-04-25T09:32:27.000Z,9.90
2023-04-25T09:35:26.977Z,9.60
2023-04-25T09:38:19.133Z,9.70
2023-04-25T09:41:13.159Z,9.70
2023-04-25T09:44:04.774Z,9.70
2023-04-25T09:46:55.823Z,9.70
2023-04-25T09:49:47.131Z,9.70
2023-04-25T09:52:34.797Z,9.50
2023-04-25T09:55:34.227Z,9.60
2023-04-25T09:58:21.204Z,9.80
2023-04-25T10:01:09.916Z,9.80
2023-04-25T10:04:11.542Z,9.80
2023-04-25T10:07:14.502Z,9.80
2023-04-25T10:10:07.113Z,9.80
2023-04-25T10:12:54.317Z,9.90
2023-04-25T10:15:41.866Z,9.90
2023-04-25T10:18:29.126Z,9.90
2023-04-25T10:21:18.003Z,9.90
2023-04-25T10:24:06.884Z,9.90
2023-04-25T10:26:53.867Z,10.00
2023-04-25T10:29:40.301Z,9.80
2023-04-25T10:32:27.545Z,9.70
2023-04-25T10:35:17.477Z,9.80
2023-04-25T10:38:10.907Z,9.90
2023-04-25T10:41:07.387Z,9.80
2023-04-25T10:44:03.037Z,9.80
2023-04-25T10:46:49.919Z,9.90
2023-04-25T10:49:38.045Z,9.80
2023-04-25T10:52:29.235Z,9.90
2023-04-25T10:55:16.181Z,9.90
2023-04-25T10:58:04.360Z,10.00
2023-04-25T11:00:57.467Z,10.20
2023-04-25T11:03:46.279Z,10.30
2023-04-25T11:06:46.323Z,10.20
2023-04-25T11:09:34.488Z,10.40
2023-04-25T11:12:21.488Z,10.50
2023-04-25T11:15:10.910Z,10.40
2023-04-25T11:17:57.907Z,10.50
2023-04-25T11:20:45.746Z,10.40
2023-04-25T11:23:33.296Z,10.30
2023-04-25T11:26:21.798Z,10.30
2023-04-25T11:29:08.761Z,10.30
2023-04-25T11:31:59.004Z,10.20
2023-04-25T11:34:47.103Z,10.20
2023-04-25T11:37:35.262Z,10.10
2023-04-25T11:40:22.024Z,10.00
2023-04-25T11:43:08.875Z,10.00
2023-04-25T11:45:55.682Z,10.00
2023-04-25T11:48:45.565Z,10.00
2023-04-25T11:51:32.833Z,10.10
2023-04-25T11:54:19.568Z,10.20
2023-04-25T11:57:06.474Z,10.30
2023-04-25T11:59:54.092Z,10.40
2023-04-25T12:02:43.785Z,10.70
2023-04-25T12:05:34.994Z,10.70
2023-04-25T12:08:22.360Z,10.80
2023-04-25T12:11:22.672Z,10.80
2023-04-25T12:14:09.239Z,10.70
2023-04-25T12:16:58.665Z,10.60
2023-04-25T12:19:46.029Z,10.70
2023-04-25T12:22:34.184Z,10.60
2023-04-25T12:25:37.806Z,10.90
2023-04-25T12:28:25.655Z,11.00
2023-04-25T12:31:12.776Z,11.10
2023-04-25T12:33:59.753Z,11.10
2023-04-25T12:36:46.583Z,10.80
2023-04-25T12:39:34.546Z,10.90
2023-04-25T12:42:21.521Z,10.90
2023-04-25T12:45:09.466Z,11.00
2023-04-25T12:47:56.282Z,11.40
2023-04-25T12:50:43.445Z,11.40
2023-04-25T12:53:30.858Z,11.40
2023-04-25T12:56:18.985Z,11.80
2023-04-25T12:59:06.502Z,11.80
2023-04-25T13:01:53.098Z,11.90
2023-04-25T13:04:40.202Z,12.20
2023-04-25T13:07:27.199Z,12.30
2023-04-25T13:10:13.657Z,12.30
2023-04-25T13:13:02.074Z,12.30
2023-04-25T13:15:48.596Z,12.30
2023-04-25T13:18:35.919Z,12.30
2023-04-25T13:21:22.389Z,12.10
2023-04-25T13:24:09.382Z,12.00
2023-04-25T13:26:56.166Z,11.70
2023-04-25T13:29:44.052Z,11.80
2023-04-25T13:32:30.747Z,11.80
2023-04-25T13:35:19.669Z,11.90
2023-04-25T13:38:06.568Z,12.10
2023-04-25T13:40:54.044Z,11.80
2023-04-25T13:43:40.541Z,11.90
2023-04-25T13:46:44.882Z,11.80
2023-04-25T13:49:32.681Z,11.90
2023-04-25T13:52:19.161Z,12.00
2023-04-25T13:55:07.790Z,11.90
2023-04-25T13:57:54.664Z,11.90
2023-04-25T14:00:44.332Z,11.90
2023-04-25T14:03:32.796Z,11.90
2023-04-25T14:06:23.791Z,12.00
2023-04-25T14:09:11.290Z,12.20
2023-04-25T14:11:58.259Z,12.40
2023-04-25T14:14:44.837Z,12.40
2023-04-25T14:17:31.312Z,12.50
2023-04-25T14:20:21.232Z,12.70
2023-04-25T14:23:07.998Z,12.90
2023-04-25T14:25:54.576Z,12.80
2023-04-25T14:28:41.537Z,12.60
2023-04-25T14:31:28.083Z,12.50
2023-04-25T14:34:14.941Z,12.40
2023-04-25T14:37:02.856Z,12.40
2023-04-25T14:39:49.652Z,12.50
2023-04-25T14:42:36.657Z,12.50
2023-04-25T14:45:23.203Z,12.50
2023-04-25T14:48:09.893Z,12.70
2023-04-25T14:50:57.416Z,12.80
2023-04-25T14:53:45.420Z,12.80
2023-04-25T14:56:32.305Z,12.80
2023-04-25T14:59:18.751Z,12.70
2023-04-25T15:02:05.292Z,12.70
2023-04-25T15:04:52.415Z,12.80
2023-04-25T15:07:40.358Z,12.80
2023-04-25T15:10:28.210Z,12.80
2023-04-25T15:13:14.820Z,12.80
2023-04-25T15:16:01.368Z,12.70
2023-04-25T15:18:47.794Z,12.70
2023-04-25T15:21:34.682Z,12.50
2023-04-25T15:24:22.393Z,12.30
2023-04-25T15:27:10.530Z,12.40
2023-04-25T15:29:57.292Z,12.70
2023-04-25T15:32:44.031Z,12.70
2023-04-25T15:35:30.713Z,12.70
2023-04-25T15:38:17.077Z,12.80
2023-04-25T15:41:04.881Z,12.80
2023-04-25T15:43:54.889Z,12.80
2023-04-25T15:46:41.797Z,12.80
2023-04-25T15:49:28.692Z,12.70
2023-04-25T15:52:15.830Z,12.80
2023-04-25T15:55:02.475Z,12.70
2023-04-25T15:57:51.140Z,12.60
2023-04-25T16:00:40.241Z,12.40
2023-04-25T16:03:27.601Z,12.30
2023-04-25T16:06:15.501Z,12.20
2023-04-25T16:09:01.993Z,12.10
2023-04-25T16:11:48.337Z,12.00
2023-04-25T16:14:34.897Z,11.80
2023-04-25T16:17:22.653Z,11.40
2023-04-25T16:20:11.868Z,11.30
2023-04-25T16:22:58.706Z,11.00
2023-04-25T16:25:45.218Z,10.70
2023-04-25T16:28:32.100Z,10.50
2023-04-25T16:31:18.738Z,10.40
2023-04-25T16:34:07.244Z,10.20
2023-04-25T16:36:56.130Z,10.20
2023-04-25T16:39:43.109Z,10.10
2023-04-25T16:42:29.589Z,10.10
2023-04-25T16:45:17.805Z,10.00
2023-04-25T16:48:04.586Z,10.00
2023-04-25T16:50:52.774Z,9.90
2023-04-25T16:53:39.626Z,10.00
2023-04-25T16:56:26.471Z,10.00
2023-04-25T16:59:12.891Z,10.00
2023-04-25T17:02:00.544Z,9.90
2023-04-25T17:04:47.567Z,9.90
2023-04-25T17:07:35.486Z,9.80
2023-04-25T17:10:22.259Z,9.70
2023-04-25T17:13:08.768Z,9.60
2023-04-25T17:15:55.167Z,9.50
2023-04-25T17:18:41.803Z,9.50
2023-04-25T17:21:28.722Z,9.40
2023-04-25T17:24:18.081Z,9.30
2023-04-25T17:27:04.865Z,9.30
2023-04-25T17:29:51.846Z,9.30
2023-04-25T17:32:38.271Z,9.50
2023-04-25T17:35:26.039Z,9.60
2023-04-25T17:38:14.767Z,9.60
2023-04-25T17:41:03.144Z,9.70
2023-04-25T17:43:50.386Z,9.70
2023-04-25T17:46:37.515Z,9.80
2023-04-25T17:49:24.346Z,9.80
2023-04-25T17:52:16.667Z,9.70
2023-04-25T17:55:03.470Z,9.40
2023-04-25T17:57:51.241Z,9.40
2023-04-25T18:00:37.744Z,9.30
2023-04-25T18:03:24.543Z,9.20
2023-04-25T18:06:11.999Z,9.30
2023-04-25T18:08:58.878Z,9.40
2023-04-25T18:11:46.385Z,9.50
2023-04-25T18:14:36.524Z,9.60
2023-04-25T18:17:25.114Z,9.80
2023-04-25T18:20:15.692Z,9.80
2023-04-25T18:23:02.691Z,9.80
2023-04-25T18:25:51.936Z,9.50
2023-04-25T18:28:38.607Z,9.50
2023-04-25T18:31:26.472Z,9.30
2023-04-25T18:34:13.725Z,9.30
2023-04-25T18:37:00.559Z,9.40
2023-04-25T18:39:46.789Z,9.50
2023-04-25T18:42:33.685Z,9.40
2023-04-25T18:45:20.572Z,9.20
2023-04-25T18:48:08.518Z,9.00
2023-04-25T18:50:55.448Z,8.80
2023-04-25T18:53:42.190Z,8.90
2023-04-25T18:56:28.957Z,9.10
2023-04-25T18:59:17.089Z,9.20
2023-04-25T19:02:05.220Z,9.50
2023-04-25T19:04:53.359Z,9.60
2023-04-25T19:07:40.452Z,9.60
2023-04-25T19:10:28.832Z,9.80
2023-04-25T19:13:15.585Z,9.80
2023-04-25T19:16:02.000Z,9.80
2023-04-25T19:18:51.849Z,9.70
2023-04-25T19:21:42.951Z,9.60
2023-04-25T19:24:29.674Z,9.60
2023-04-25T19:27:16.574Z,9.50
2023-04-25T19:30:08.013Z,9.50
2023-04-25T19:32:56.605Z,9.60
2023-04-25T19:35:43.890Z,9.60
2023-04-25T19:38:31.972Z,9.60
2023-04-25T19:41:18.525Z,9.50
2023-04-25T19:44:06.543Z,9.60
2023-04-25T19:46:53.320Z,9.60
2023-04-25T19:49:40.602Z,9.70
2023-04-25T19:52:27.454Z,9.70
2023-04-25T19:55:15.341Z,9.70
2023-04-25T19:58:01.872Z,9.70
2023-04-25T20:00:49.160Z,9.70
2023-04-25T20:03:35.906Z,9.70
2023-04-25T20:06:22.720Z,9.70
2023-04-25T20:09:09.581Z,9.80
2023-04-25T20:11:57.535Z,9.80
2023-04-25T20:14:44.968Z,9.80
2023-04-25T20:17:31.362Z,9.60
2023-04-25T20:20:18.681Z,9.70
2023-04-25T20:23:06.929Z,9.60
2023-04-25T20:25:53.643Z,9.50
2023-04-25T20:28:41.714Z,9.40
2023-04-25T20:31:28.615Z,9.40
2023-04-25T20:34:15.205Z,9.40
2023-04-25T20:37:02.827Z,9.40
2023-04-25T20:39:49.126Z,9.40
2023-04-25T20:42:36.254Z,9.40
2023-04-25T20:45:26.089Z,9.40
2023-04-25T20:48:12.949Z,9.30
2023-04-25T20:51:00.225Z,9.20
2023-04-25T20:53:47.186Z,9.20
2023-04-25T20:56:33.775Z,9.20
2023-04-25T20:59:20.529Z,9.40
2023-04-25T21:02:12.269Z,9.50
2023-04-25T21:04:58.842Z,9.50
2023-04-25T21:07:45.607Z,9.60
2023-04-25T21:10:32.442Z,9.60
2023-04-25T21:13:19.512Z,9.60
2023-04-25T21:16:06.645Z,9.60
2023-04-25T21:18:54.363Z,9.50
2023-04-25T21:21:41.174Z,9.30
2023-04-25T21:24:27.841Z,9.30
2023-04-25T21:27:14.409Z,9.20
2023-04-25T21:30:01.222Z,9.20
2023-04-25T21:32:48.455Z,9.30
2023-04-25T21:35:37.048Z,9.30
2023-04-25T21:38:23.481Z,9.30
2023-04-25T21:41:09.919Z,9.30
2023-04-25T21:43:56.963Z,9.40
2023-04-25T21:46:43.563Z,9.50
2023-04-25T21:49:30.649Z,9.40
2023-04-25T21:52:18.540Z,9.50
2023-04-25T21:55:05.762Z,9.50
2023-04-25T21:57:53.054Z,9.50
2023-04-25T22:00:39.802Z,9.30
2023-04-25T22:03:26.403Z,9.50
2023-04-25T22:06:13.044Z,9.50
2023-04-25T22:09:00.922Z,9.50
2023-04-25T22:11:47.872Z,9.40
2023-04-25T22:14:34.724Z,9.00
2023-04-25T22:17:25.739Z,9.00
2023-04-25T22:20:14.396Z,8.90
2023-04-25T22:23:01.060Z,8.80
2023-04-25T22:25:48.739Z,8.80
2023-04-25T22:28:35.448Z,8.90
2023-04-25T22:31:21.885Z,8.90
2023-04-25T22:34:08.638Z,9.00
2023-04-25T22:36:55.854Z,9.00
2023-04-25T22:39:42.677Z,9.00
2023-04-25T22:42:30.876Z,9.00
2023-04-25T22:45:17.305Z,8.80
2023-04-25T22:48:03.837Z,8.90
2023-04-25T22:50:51.452Z,8.80
2023-04-25T22:53:40.113Z,8.70
2023-04-25T22:56:26.989Z,8.50
2023-04-25T22:59:16.067Z,8.40
2023-04-25T23:02:03.678Z,8.30
2023-04-25T23:04:53.161Z,8.30
2023-04-25T23:07:40.467Z,8.20
2023-04-25T23:10:28.422Z,8.30
2023-04-25T23:13:15.346Z,8.30
2023-04-25T23:16:07.306Z,8.50
2023-04-25T23:18:53.855Z,8.40
2023-04-25T23:21:40.921Z,8.60
2023-04-25T23:24:27.437Z,8.50
2023-04-25T23:27:14.179Z,8.60
2023-04-25T23:30:00.685Z,8.60
2023-04-25T23:32:49.017Z,8.50
2023-04-25T23:35:36.954Z,8.60
2023-04-25T23:38:23.594Z,8.60
2023-04-25T23:41:10.107Z,8.60
2023-04-25T23:43:56.363Z,8.50
2023-04-25T23:46:42.819Z,8.50
2023-04-25T23:49:33.599Z,8.40
2023-04-25T23:52:20.057Z,8.40
2023-04-25T23:55:07.381Z,8.30
2023-04-25T23:57:54.294Z,8.30
